createdAt,value
2023-03-18T00:01:43.408Z,100.00
2023-03-18T00:04:12.815Z,100.00
2023-03-18T00:06:41.065Z,100.00
2023-03-18T00:09:09.506Z,100.00
2023-03-18T00:11:39.427Z,100.00
2023-03-18T00:14:08.759Z,100.00
2023-03-18T00:16:37.412Z,100.00
2023-03-18T00:19:06.863Z,100.00
2023-03-18T00:21:35.151Z,100.00
2023-03-18T00:24:03.420Z,100.00
2023-03-18T00:26:31.966Z,100.00
2023-03-18T00:29:01.736Z,100.00
2023-03-18T00:31:30.351Z,100.00
2023-03-18T00:33:59.400Z,100.00
2023-03-18T00:36:28.547Z,100.00
2023-03-18T00:38:58.462Z,100.00
2023-03-18T00:41:27.524Z,100.00
2023-03-18T00:43:56.740Z,100.00
2023-03-18T00:46:28.703Z,100.00
2023-03-18T00:49:00.477Z,100.00
2023-03-18T00:51:30.281Z,100.00
2023-03-18T00:54:00.605Z,100.00
2023-03-18T00:56:32.287Z,100.00
2023-03-18T00:59:02.418Z,100.00
2023-03-18T01:01:32.528Z,100.00
2023-03-18T01:04:02.009Z,100.00
2023-03-18T01:06:32.610Z,100.00
2023-03-18T01:09:02.721Z,100.00
2023-03-18T01:11:31.434Z,100.00
2023-03-18T01:14:00.729Z,100.00
2023-03-18T01:16:30.219Z,100.00
2023-03-18T01:19:04.531Z,100.00
2023-03-18T01:21:34.009Z,100.00
2023-03-18T01:24:04.478Z,100.00
2023-03-18T01:26:34.994Z,100.00
2023-03-18T01:29:03.872Z,100.00
2023-03-18T01:31:34.799Z,100.00
2023-03-18T01:34:09.794Z,100.00
2023-03-18T01:36:51.886Z,100.00
2023-03-18T01:39:23.499Z,100.00
2023-03-18T01:41:52.457Z,100.00
2023-03-18T01:44:29.351Z,100.00
2023-03-18T01:46:58.921Z,100.00
2023-03-18T01:49:34.071Z,100.00
2023-03-18T01:52:07.273Z,100.00
2023-03-18T01:54:39.432Z,100.00
2023-03-18T01:57:08.045Z,100.00
2023-03-18T01:59:39.654Z,100.00
2023-03-18T02:02:10.427Z,100.00
2023-03-18T02:04:43.535Z,100.00
2023-03-18T02:07:18.226Z,100.00
2023-03-18T02:09:47.280Z,100.00
2023-03-18T02:12:19.840Z,100.00
2023-03-18T02:14:48.350Z,100.00
2023-03-18T02:17:27.825Z,100.00
2023-03-18T02:20:06.982Z,100.00
2023-03-18T02:22:38.518Z,100.00
2023-03-18T02:25:18.966Z,100.00
2023-03-18T02:27:51.561Z,100.00
2023-03-18T02:30:22.890Z,100.00
2023-03-18T02:32:54.600Z,100.00
2023-03-18T02:35:23.244Z,100.00
2023-03-18T02:37:53.357Z,100.00
2023-03-18T02:40:24.657Z,100.00
2023-03-18T02:42:55.417Z,100.00
2023-03-18T02:45:39.652Z,100.00
2023-03-18T02:48:12.006Z,100.00
2023-03-18T02:50:42.323Z,100.00
2023-03-18T02:53:13.279Z,100.00
2023-03-18T02:55:42.682Z,100.00
2023-03-18T02:58:12.757Z,100.00
2023-03-18T03:00:42.116Z,100.00
2023-03-18T03:03:10.582Z,100.00
2023-03-18T03:05:38.880Z,100.00
2023-03-18T03:08:07.500Z,100.00
2023-03-18T03:10:40.437Z,100.00
2023-03-18T03:13:09.889Z,100.00
2023-03-18T03:15:41.674Z,100.00
2023-03-18T03:18:10.332Z,100.00
2023-03-18T03:20:39.225Z,100.00
2023-03-18T03:23:08.342Z,100.00
2023-03-18T03:25:36.882Z,100.00
2023-03-18T03:28:06.612Z,100.00
2023-03-18T03:30:35.311Z,100.00
2023-03-18T03:33:05.951Z,100.00
2023-03-18T03:35:34.891Z,100.00
2023-03-18T03:38:03.568Z,100.00
2023-03-18T03:40:32.327Z,100.00
2023-03-18T03:43:00.760Z,100.00
2023-03-18T03:45:29.222Z,100.00
2023-03-18T03:47:57.500Z,100.00
2023-03-18T03:50:27.207Z,100.00
2023-03-18T03:52:55.472Z,100.00
2023-03-18T03:55:24.106Z,100.00
2023-03-18T03:57:54.493Z,100.00
2023-03-18T04:00:23.672Z,100.00
2023-03-18T04:02:53.389Z,100.00
2023-03-18T04:05:25.569Z,100.00
2023-03-18T04:07:55.781Z,100.00
2023-03-18T04:10:36.651Z,100.00
2023-03-18T04:13:07.093Z,100.00
2023-03-18T04:15:35.409Z,100.00
2023-03-18T04:18:31.405Z,100.00
2023-03-18T04:20:59.964Z,100.00
2023-03-18T04:23:42.459Z,100.00
2023-03-18T04:26:11.758Z,100.00
2023-03-18T04:28:40.530Z,100.00
2023-03-18T04:31:11.041Z,100.00
2023-03-18T04:33:39.899Z,100.00
2023-03-18T04:36:09.398Z,100.00
2023-03-18T04:38:39.415Z,100.00
2023-03-18T04:41:09.846Z,100.00
2023-03-18T04:43:39.597Z,100.00
2023-03-18T04:46:08.876Z,100.00
2023-03-18T04:48:37.555Z,100.00
2023-03-18T04:51:09.396Z,100.00
2023-03-18T04:53:38.311Z,100.00
2023-03-18T04:56:08.939Z,100.00
2023-03-18T04:58:53.151Z,100.00
2023-03-18T05:01:28.475Z,100.00
2023-03-18T05:03:57.269Z,100.00
2023-03-18T05:06:32.024Z,100.00
2023-03-18T05:09:06.859Z,100.00
2023-03-18T05:11:36.460Z,100.00
2023-03-18T05:14:15.737Z,100.00
2023-03-18T05:16:48.255Z,100.00
2023-03-18T05:19:18.050Z,100.00
2023-03-18T05:21:54.411Z,100.00
2023-03-18T05:24:23.647Z,100.00
2023-03-18T05:26:52.252Z,100.00
2023-03-18T05:29:25.918Z,100.00
2023-03-18T05:32:08.195Z,100.00
2023-03-18T05:34:38.524Z,100.00
2023-03-18T05:37:09.269Z,100.00
2023-03-18T05:39:41.721Z,100.00
2023-03-18T05:42:14.644Z,100.00
2023-03-18T05:44:45.603Z,100.00
2023-03-18T05:47:16.604Z,100.00
2023-03-18T05:50:01.780Z,100.00
2023-03-18T05:52:30.264Z,100.00
2023-03-18T05:55:03.396Z,100.00
2023-03-18T05:57:36.005Z,100.00
2023-03-18T06:00:11.558Z,100.00
2023-03-18T06:02:47.761Z,100.00
2023-03-18T06:05:18.653Z,100.00
2023-03-18T06:07:48.707Z,100.00
2023-03-18T06:10:18.212Z,100.00
2023-03-18T06:12:49.488Z,100.00
2023-03-18T06:15:21.796Z,100.00
2023-03-18T06:17:51.081Z,100.00
2023-03-18T06:20:19.969Z,100.00
2023-03-18T06:22:49.788Z,100.00
2023-03-18T06:25:20.322Z,100.00
2023-03-18T06:27:50.071Z,100.00
2023-03-18T06:30:22.429Z,100.00
2023-03-18T06:32:51.104Z,100.00
2023-03-18T06:35:21.894Z,100.00
2023-03-18T06:37:50.280Z,100.00
2023-03-18T06:40:18.785Z,100.00
2023-03-18T06:42:49.110Z,100.00
2023-03-18T06:45:35.280Z,100.00
2023-03-18T06:48:09.664Z,100.00
2023-03-18T06:50:42.316Z,100.00
2023-03-18T06:53:20.407Z,100.00
2023-03-18T06:55:49.945Z,100.00
2023-03-18T06:58:21.516Z,100.00
2023-03-18T07:01:01.830Z,100.00
2023-03-18T07:03:36.533Z,100.00
2023-03-18T07:06:05.976Z,100.00
2023-03-18T07:08:35.141Z,100.00
2023-03-18T07:11:05.369Z,100.00
2023-03-18T07:13:34.685Z,100.00
2023-03-18T07:16:07.278Z,100.00
2023-03-18T07:18:35.721Z,100.00
2023-03-18T07:21:03.995Z,100.00
2023-03-18T07:23:32.503Z,93.81
2023-03-18T07:26:02.190Z,91.56
2023-03-18T07:28:32.508Z,91.06
2023-03-18T07:31:04.027Z,90.21
2023-03-18T07:33:34.316Z,85.92
2023-03-18T07:36:04.219Z,84.25
2023-03-18T07:38:34.191Z,83.56
2023-03-18T07:41:02.548Z,83.27
2023-03-18T07:43:32.538Z,81.05
2023-03-18T07:46:07.475Z,81.04
2023-03-18T07:48:40.574Z,82.86
2023-03-18T07:54:08.396Z,79.92
2023-03-18T07:57:08.474Z,78.75
2023-03-18T08:00:01.281Z,75.96
2023-03-18T08:02:52.160Z,75.57
2023-03-18T08:05:27.538Z,74.77
2023-03-18T08:07:55.769Z,75.13
2023-03-18T08:10:24.697Z,73.81
2023-03-18T08:12:54.129Z,72.50
2023-03-18T08:15:23.191Z,72.66
2023-03-18T08:17:52.662Z,73.13
2023-03-18T08:20:22.055Z,71.30
2023-03-18T08:22:51.782Z,70.35
2023-03-18T08:25:22.238Z,68.96
2023-03-18T08:27:50.796Z,66.63
2023-03-18T08:30:19.697Z,66.11
2023-03-18T08:32:48.424Z,65.03
2023-03-18T08:35:17.013Z,64.71
2023-03-18T08:37:45.389Z,62.49
2023-03-18T08:40:15.390Z,61.65
2023-03-18T08:42:43.641Z,59.84
2023-03-18T08:45:13.204Z,59.77
2023-03-18T08:47:41.551Z,59.84
2023-03-18T08:50:11.215Z,59.36
2023-03-18T08:52:39.863Z,57.54
2023-03-18T08:55:09.758Z,56.60
2023-03-18T08:57:39.458Z,55.95
2023-03-18T09:00:09.147Z,55.24
2023-03-18T09:02:37.458Z,54.02
2023-03-18T09:05:06.648Z,53.59
2023-03-18T09:07:35.037Z,52.98
2023-03-18T09:10:04.524Z,52.61
2023-03-18T09:12:32.790Z,52.05
2023-03-18T09:15:03.667Z,51.13
2023-03-18T09:17:50.913Z,50.68
2023-03-18T09:20:22.703Z,50.95
2023-03-18T09:22:52.169Z,50.41
2023-03-18T09:25:20.928Z,49.78
2023-03-18T09:27:49.416Z,48.79
2023-03-18T09:30:19.302Z,48.82
2023-03-18T09:32:47.744Z,49.38
2023-03-18T09:35:17.800Z,49.04
2023-03-18T09:37:47.736Z,49.55
2023-03-18T09:40:22.571Z,46.89
2023-03-18T09:42:57.989Z,46.10
2023-03-18T09:45:32.404Z,44.92
2023-03-18T09:48:17.637Z,44.46
2023-03-18T09:50:51.480Z,44.21
2023-03-18T09:53:22.600Z,44.53
2023-03-18T09:55:54.041Z,44.36
2023-03-18T09:58:25.791Z,44.25
2023-03-18T10:00:58.917Z,43.86
2023-03-18T10:03:33.453Z,44.51
2023-03-18T10:06:05.864Z,44.01
2023-03-18T10:08:51.401Z,42.72
2023-03-18T10:11:24.512Z,41.63
